sensor_id;sensor_type;location;lat;lon;timestamp;temperature;humidity
44843;DHT22;31884;52.538;13.820;2022-11-20T00:00:52;1.50;99.90
44843;DHT22;31884;52.538;13.820;2022-11-20T00:03:18;1.40;99.90
44843;DHT22;31884;52.538;13.820;2022-11-20T00:05:44;1.40;99.90
44843;DHT22;31884;52.538;13.820;2022-11-20T00:08:10;1.40;99.90
44843;DHT22;31884;52.538;13.820;2022-11-20T00:10:36;1.40;99.90
44843;DHT22;31884;52.538;13.820;2022-11-20T00:13:02;1.30;99.90
44843;DHT22;31884;52.538;13.820;2022-11-20T00:15:28;1.30;99.90
44843;DHT22;31884;52.538;13.820;2022-11-20T00:17:53;1.30;99.90
44843;DHT22;31884;52.538;13.820;2022-11-20T00:20:19;1.30;99.90
44843;DHT22;31884;52.538;13.820;2022-11-20T00:22:44;1.30;99.90
44843;DHT22;31884;52.538;13.820;2022-11-20T00:25:10;1.30;99.90
44843;DHT22;31884;52.538;13.820;2022-11-20T00:27:35;1.30;99.90
44843;DHT22;31884;52.538;13.820;2022-11-20T00:30:01;1.30;99.90
44843;DHT22;31884;52.538;13.820;2022-11-20T00:32:26;1.20;99.90
44843;DHT22;31884;52.538;13.820;2022-11-20T00:34:51;1.20;99.90
44843;DHT22;31884;52.538;13.820;2022-11-20T00:37:17;1.20;99.90
44843;DHT22;31884;52.538;13.820;2022-11-20T00:39:42;1.20;99.90
44843;DHT22;31884;52.538;13.820;2022-11-20T00:42:08;1.20;99.90
44843;DHT22;31884;52.538;13.820;2022-11-20T00:44:33;1.20;99.90
44843;DHT22;31884;52.538;13.820;2022-11-20T00:46:59;1.20;99.90
44843;DHT22;31884;52.538;13.820;2022-11-20T00:49:24;1.20;99.90
44843;DHT22;31884;52.538;13.820;2022-11-20T00:51:50;1.20;99.90
44843;DHT22;31884;52.538;13.820;2022-11-20T00:54:15;1.20;99.90
44843;DHT22;31884;52.538;13.820;2022-11-20T00:56:41;1.20;99.90
44843;DHT22;31884;52.538;13.820;2022-11-20T00:59:08;1.20;99.90
44843;DHT22;31884;52.538;13.820;2022-11-20T01:01:34;1.20;99.90
44843;DHT22;31884;52.538;13.820;2022-11-20T01:04:00;1.20;99.90
44843;DHT22;31884;52.538;13.820;2022-11-20T01:06:31;1.20;99.90
44843;DHT22;31884;52.538;13.820;2022-11-20T01:08:59;1.20;99.90
44843;DHT22;31884;52.538;13.820;2022-11-20T01:11:37;1.20;99.90
44843;DHT22;31884;52.538;13.820;2022-11-20T01:14:05;1.20;99.90
44843;DHT22;31884;52.538;13.820;2022-11-20T01:16:36;1.20;99.90
44843;DHT22;31884;52.538;13.820;2022-11-20T01:19:04;1.10;99.90
44843;DHT22;31884;52.538;13.820;2022-11-20T01:21:35;1.20;99.90
44843;DHT22;31884;52.538;13.820;2022-11-20T01:24:01;1.10;99.90
44843;DHT22;31884;52.538;13.820;2022-11-20T01:26:32;1.20;99.90
44843;DHT22;31884;52.538;13.820;2022-11-20T01:28:59;1.20;99.90
44843;DHT22;31884;52.538;13.820;2022-11-20T01:31:30;1.20;99.90
44843;DHT22;31884;52.538;13.820;2022-11-20T01:33:57;1.10;99.90
44843;DHT22;31884;52.538;13.820;2022-11-20T01:36:26;1.10;99.90
44843;DHT22;31884;52.538;13.820;2022-11-20T01:38:53;1.10;99.90
44843;DHT22;31884;52.538;13.820;2022-11-20T01:41:19;1.10;99.90
44843;DHT22;31884;52.538;13.820;2022-11-20T01:44:04;1.10;99.90
44843;DHT22;31884;52.538;13.820;2022-11-20T01:46:35;1.10;99.90
44843;DHT22;31884;52.538;13.820;2022-11-20T01:49:34;1.10;99.90
44843;DHT22;31884;52.538;13.820;2022-11-20T01:52:01;1.10;99.90
44843;DHT22;31884;52.538;13.820;2022-11-20T01:54:39;1.10;99.90
44843;DHT22;31884;52.538;13.820;2022-11-20T01:57:09;1.10;99.90
44843;DHT22;31884;52.538;13.820;2022-11-20T01:59:41;1.10;99.90
44843;DHT22;31884;52.538;13.820;2022-11-20T02:02:09;1.10;99.90
44843;DHT22;31884;52.538;13.820;2022-11-20T02:04:35;1.10;99.90
44843;DHT22;31884;52.538;13.820;2022-11-20T02:07:03;1.10;99.90
44843;DHT22;31884;52.538;13.820;2022-11-20T02:09:29;1.10;99.90
44843;DHT22;31884;52.538;13.820;2022-11-20T02:11:55;1.10;99.90
44843;DHT22;31884;52.538;13.820;2022-11-20T02:14:21;1.10;99.90
44843;DHT22;31884;52.538;13.820;2022-11-20T02:16:48;1.10;99.90
44843;DHT22;31884;52.538;13.820;2022-11-20T02:19:30;1.00;99.90
44843;DHT22;31884;52.538;13.820;2022-11-20T02:22:14;1.00;99.90
44843;DHT22;31884;52.538;13.820;2022-11-20T02:24:44;1.10;99.90
44843;DHT22;31884;52.538;13.820;2022-11-20T02:27:15;1.00;99.90
44843;DHT22;31884;52.538;13.820;2022-11-20T02:29:54;1.10;99.90
44843;DHT22;31884;52.538;13.820;2022-11-20T02:34:51;1.00;99.90
44843;DHT22;31884;52.538;13.820;2022-11-20T02:37:17;1.00;99.90
44843;DHT22;31884;52.538;13.820;2022-11-20T02:39:44;1.00;99.90
44843;DHT22;31884;52.538;13.820;2022-11-20T02:42:11;1.00;99.90
44843;DHT22;31884;52.538;13.820;2022-11-20T02:44:36;1.00;99.90
44843;DHT22;31884;52.538;13.820;2022-11-20T02:47:02;1.00;99.90
44843;DHT22;31884;52.538;13.820;2022-11-20T02:49:27;1.00;99.90
44843;DHT22;31884;52.538;13.820;2022-11-20T02:51:53;1.00;99.90
44843;DHT22;31884;52.538;13.820;2022-11-20T02:54:18;1.00;99.90
44843;DHT22;31884;52.538;13.820;2022-11-20T02:56:44;1.00;99.90
44843;DHT22;31884;52.538;13.820;2022-11-20T02:59:09;1.10;99.90
44843;DHT22;31884;52.538;13.820;2022-11-20T03:01:35;1.10;99.90
44843;DHT22;31884;52.538;13.820;2022-11-20T03:04:01;1.10;99.90
44843;DHT22;31884;52.538;13.820;2022-11-20T03:06:26;1.10;99.90
44843;DHT22;31884;52.538;13.820;2022-11-20T03:08:52;1.10;99.90
44843;DHT22;31884;52.538;13.820;2022-11-20T03:11:18;1.10;99.90
44843;DHT22;31884;52.538;13.820;2022-11-20T03:13:43;1.10;99.90
44843;DHT22;31884;52.538;13.820;2022-11-20T03:16:15;1.10;99.90
44843;DHT22;31884;52.538;13.820;2022-11-20T03:18:41;1.10;99.90
44843;DHT22;31884;52.538;13.820;2022-11-20T03:21:07;1.10;99.90
44843;DHT22;31884;52.538;13.820;2022-11-20T03:23:34;1.10;99.90
44843;DHT22;31884;52.538;13.820;2022-11-20T03:26:23;1.10;99.90
44843;DHT22;31884;52.538;13.820;2022-11-20T03:28:54;1.10;99.90
44843;DHT22;31884;52.538;13.820;2022-11-20T03:31:24;1.10;99.90
44843;DHT22;31884;52.538;13.820;2022-11-20T03:33:49;1.00;99.90
44843;DHT22;31884;52.538;13.820;2022-11-20T03:36:16;1.00;99.90
44843;DHT22;31884;52.538;13.820;2022-11-20T03:38:42;1.10;99.90
44843;DHT22;31884;52.538;13.820;2022-11-20T03:41:10;1.10;99.90
44843;DHT22;31884;52.538;13.820;2022-11-20T03:43:36;1.10;99.90
44843;DHT22;31884;52.538;13.820;2022-11-20T03:46:02;1.00;99.90
44843;DHT22;31884;52.538;13.820;2022-11-20T03:48:28;1.10;99.90
44843;DHT22;31884;52.538;13.820;2022-11-20T03:51:16;1.10;99.90
44843;DHT22;31884;52.538;13.820;2022-11-20T03:53:43;1.00;99.90
44843;DHT22;31884;52.538;13.820;2022-11-20T03:56:10;1.00;99.90
44843;DHT22;31884;52.538;13.820;2022-11-20T03:58:37;1.00;99.90
44843;DHT22;31884;52.538;13.820;2022-11-20T04:01:20;1.00;99.90
44843;DHT22;31884;52.538;13.820;2022-11-20T04:03:46;1.00;99.90
44843;DHT22;31884;52.538;13.820;2022-11-20T04:06:17;1.00;99.90
44843;DHT22;31884;52.538;13.820;2022-11-20T04:08:43;1.00;99.90
44843;DHT22;31884;52.538;13.820;2022-11-20T04:11:09;1.00;99.90
44843;DHT22;31884;52.538;13.820;2022-11-20T04:13:35;0.90;99.90
44843;DHT22;31884;52.538;13.820;2022-11-20T04:16:00;1.00;99.90
44843;DHT22;31884;52.538;13.820;2022-11-20T04:18:26;1.00;99.90
44843;DHT22;31884;52.538;13.820;2022-11-20T04:20:51;1.00;99.90
44843;DHT22;31884;52.538;13.820;2022-11-20T04:23:16;0.90;99.90
44843;DHT22;31884;52.538;13.820;2022-11-20T04:25:42;1.00;99.90
44843;DHT22;31884;52.538;13.820;2022-11-20T04:28:07;1.00;99.90
44843;DHT22;31884;52.538;13.820;2022-11-20T04:30:33;0.90;99.90
44843;DHT22;31884;52.538;13.820;2022-11-20T04:32:58;1.00;99.90
44843;DHT22;31884;52.538;13.820;2022-11-20T04:35:24;0.90;99.90
44843;DHT22;31884;52.538;13.820;2022-11-20T04:37:51;0.90;99.90
44843;DHT22;31884;52.538;13.820;2022-11-20T04:40:17;0.90;99.90
44843;DHT22;31884;52.538;13.820;2022-11-20T04:42:42;0.90;99.90
44843;DHT22;31884;52.538;13.820;2022-11-20T04:45:08;0.90;99.90
44843;DHT22;31884;52.538;13.820;2022-11-20T04:47:33;0.90;99.90
44843;DHT22;31884;52.538;13.820;2022-11-20T04:49:59;0.90;99.90
44843;DHT22;31884;52.538;13.820;2022-11-20T04:52:24;0.90;99.90
44843;DHT22;31884;52.538;13.820;2022-11-20T04:54:50;0.90;99.90
44843;DHT22;31884;52.538;13.820;2022-11-20T04:57:18;1.00;99.90
44843;DHT22;31884;52.538;13.820;2022-11-20T04:59:43;0.90;99.90
44843;DHT22;31884;52.538;13.820;2022-11-20T05:02:09;0.90;99.90
44843;DHT22;31884;52.538;13.820;2022-11-20T05:04:35;0.90;99.90
44843;DHT22;31884;52.538;13.820;2022-11-20T05:07:00;0.90;99.90
44843;DHT22;31884;52.538;13.820;2022-11-20T05:09:25;1.00;99.90
44843;DHT22;31884;52.538;13.820;2022-11-20T05:11:51;0.90;99.90
44843;DHT22;31884;52.538;13.820;2022-11-20T05:14:16;0.90;99.90
44843;DHT22;31884;52.538;13.820;2022-11-20T05:16:42;0.90;99.90
44843;DHT22;31884;52.538;13.820;2022-11-20T05:19:07;0.90;99.90
44843;DHT22;31884;52.538;13.820;2022-11-20T05:21:33;0.90;99.90
44843;DHT22;31884;52.538;13.820;2022-11-20T05:23:58;0.90;99.90
44843;DHT22;31884;52.538;13.820;2022-11-20T05:26:24;0.90;99.90
44843;DHT22;31884;52.538;13.820;2022-11-20T05:28:50;0.90;99.90
44843;DHT22;31884;52.538;13.820;2022-11-20T05:31:21;0.90;99.90
44843;DHT22;31884;52.538;13.820;2022-11-20T05:33:47;0.90;99.90
44843;DHT22;31884;52.538;13.820;2022-11-20T05:36:14;0.90;99.90
44843;DHT22;31884;52.538;13.820;2022-11-20T05:38:40;0.90;99.90
44843;DHT22;31884;52.538;13.820;2022-11-20T05:41:09;1.00;99.90
44843;DHT22;31884;52.538;13.820;2022-11-20T05:43:35;0.90;99.90
44843;DHT22;31884;52.538;13.820;2022-11-20T05:46:02;0.90;99.90
44843;DHT22;31884;52.538;13.820;2022-11-20T05:48:28;0.90;99.90
44843;DHT22;31884;52.538;13.820;2022-11-20T05:50:53;0.90;99.90
44843;DHT22;31884;52.538;13.820;2022-11-20T05:53:19;0.90;99.90
44843;DHT22;31884;52.538;13.820;2022-11-20T05:55:44;0.80;99.90
44843;DHT22;31884;52.538;13.820;2022-11-20T05:58:10;0.80;99.90
44843;DHT22;31884;52.538;13.820;2022-11-20T06:00:36;0.70;99.90
44843;DHT22;31884;52.538;13.820;2022-11-20T06:03:01;0.70;99.90
44843;DHT22;31884;52.538;13.820;2022-11-20T06:05:27;0.70;99.90
44843;DHT22;31884;52.538;13.820;2022-11-20T06:07:52;0.70;99.90
44843;DHT22;31884;52.538;13.820;2022-11-20T06:10:18;0.70;99.90
44843;DHT22;31884;52.538;13.820;2022-11-20T06:12:43;0.70;99.90
44843;DHT22;31884;52.538;13.820;2022-11-20T06:15:09;0.60;99.90
44843;DHT22;31884;52.538;13.820;2022-11-20T06:17:35;0.60;99.90
44843;DHT22;31884;52.538;13.820;2022-11-20T06:20:01;0.50;99.90
44843;DHT22;31884;52.538;13.820;2022-11-20T06:22:26;0.60;99.90
44843;DHT22;31884;52.538;13.820;2022-11-20T06:24:51;0.50;99.90
44843;DHT22;31884;52.538;13.820;2022-11-20T06:27:17;0.50;99.90
44843;DHT22;31884;52.538;13.820;2022-11-20T06:29:42;0.50;99.90
44843;DHT22;31884;52.538;13.820;2022-11-20T06:32:08;0.50;99.90
44843;DHT22;31884;52.538;13.820;2022-11-20T06:34:34;0.50;99.90
44843;DHT22;31884;52.538;13.820;2022-11-20T06:36:59;0.50;99.90
44843;DHT22;31884;52.538;13.820;2022-11-20T06:39:24;0.50;99.90
44843;DHT22;31884;52.538;13.820;2022-11-20T06:41:50;0.50;99.90
44843;DHT22;31884;52.538;13.820;2022-11-20T06:44:15;0.50;99.90
44843;DHT22;31884;52.538;13.820;2022-11-20T06:46:41;0.50;99.90
44843;DHT22;31884;52.538;13.820;2022-11-20T06:49:06;0.50;99.90
44843;DHT22;31884;52.538;13.820;2022-11-20T06:51:32;0.50;99.90
44843;DHT22;31884;52.538;13.820;2022-11-20T06:53:57;0.50;99.90
44843;DHT22;31884;52.538;13.820;2022-11-20T06:56:23;0.60;99.90
44843;DHT22;31884;52.538;13.820;2022-11-20T06:58:48;0.50;99.90
44843;DHT22;31884;52.538;13.820;2022-11-20T07:01:14;0.50;99.90
44843;DHT22;31884;52.538;13.820;2022-11-20T07:03:40;0.60;99.90
44843;DHT22;31884;52.538;13.820;2022-11-20T07:06:07;0.60;99.90
44843;DHT22;31884;52.538;13.820;2022-11-20T07:08:33;0.60;99.90
44843;DHT22;31884;52.538;13.820;2022-11-20T07:11:00;0.60;99.90
44843;DHT22;31884;52.538;13.820;2022-11-20T07:13:27;0.60;99.90
44843;DHT22;31884;52.538;13.820;2022-11-20T07:15:53;0.60;99.90
44843;DHT22;31884;52.538;13.820;2022-11-20T07:18:19;0.70;99.90
44843;DHT22;31884;52.538;13.820;2022-11-20T07:20:44;0.70;99.90
44843;DHT22;31884;52.538;13.820;2022-11-20T07:23:10;0.70;99.90
44843;DHT22;31884;52.538;13.820;2022-11-20T07:25:35;0.70;99.90
44843;DHT22;31884;52.538;13.820;2022-11-20T07:28:02;0.70;99.90
44843;DHT22;31884;52.538;13.820;2022-11-20T07:30:29;0.70;99.90
44843;DHT22;31884;52.538;13.820;2022-11-20T07:32:55;0.70;99.90
44843;DHT22;31884;52.538;13.820;2022-11-20T07:35:22;0.70;99.90
44843;DHT22;31884;52.538;13.820;2022-11-20T07:37:48;0.70;99.90
44843;DHT22;31884;52.538;13.820;2022-11-20T07:40:14;0.70;99.90
44843;DHT22;31884;52.538;13.820;2022-11-20T07:42:50;0.60;99.90
44843;DHT22;31884;52.538;13.820;2022-11-20T07:45:17;0.70;99.90
44843;DHT22;31884;52.538;13.820;2022-11-20T07:47:44;0.70;99.90
44843;DHT22;31884;52.538;13.820;2022-11-20T07:50:10;0.80;99.90
44843;DHT22;31884;52.538;13.820;2022-11-20T07:52:35;0.80;99.90
44843;DHT22;31884;52.538;13.820;2022-11-20T07:55:01;0.80;99.90
44843;DHT22;31884;52.538;13.820;2022-11-20T07:57:26;0.80;99.90
44843;DHT22;31884;52.538;13.820;2022-11-20T07:59:52;0.80;99.90
44843;DHT22;31884;52.538;13.820;2022-11-20T08:02:17;0.80;99.90
44843;DHT22;31884;52.538;13.820;2022-11-20T08:04:42;0.90;99.90
44843;DHT22;31884;52.538;13.820;2022-11-20T08:07:08;0.90;99.90
44843;DHT22;31884;52.538;13.820;2022-11-20T08:09:33;1.00;99.90
44843;DHT22;31884;52.538;13.820;2022-11-20T08:11:59;1.00;99.90
44843;DHT22;31884;52.538;13.820;2022-11-20T08:14:43;1.00;99.90
44843;DHT22;31884;52.538;13.820;2022-11-20T08:17:09;1.10;99.90
44843;DHT22;31884;52.538;13.820;2022-11-20T08:19:35;1.10;99.90
44843;DHT22;31884;52.538;13.820;2022-11-20T08:22:00;1.20;99.90
44843;DHT22;31884;52.538;13.820;2022-11-20T08:24:26;1.20;99.90
44843;DHT22;31884;52.538;13.820;2022-11-20T08:26:51;1.20;99.90
44843;DHT22;31884;52.538;13.820;2022-11-20T08:29:17;1.30;99.90
44843;DHT22;31884;52.538;13.820;2022-11-20T08:31:43;1.30;99.90
44843;DHT22;31884;52.538;13.820;2022-11-20T08:34:08;1.40;99.90
44843;DHT22;31884;52.538;13.820;2022-11-20T08:36:34;1.50;99.90
44843;DHT22;31884;52.538;13.820;2022-11-20T08:39:00;1.50;99.90
44843;DHT22;31884;52.538;13.820;2022-11-20T08:41:26;1.60;99.90
44843;DHT22;31884;52.538;13.820;2022-11-20T08:43:57;1.60;99.90
44843;DHT22;31884;52.538;13.820;2022-11-20T08:46:30;1.60;99.90
44843;DHT22;31884;52.538;13.820;2022-11-20T08:48:58;1.60;99.90
44843;DHT22;31884;52.538;13.820;2022-11-20T08:51:24;1.60;99.90
44843;DHT22;31884;52.538;13.820;2022-11-20T08:53:49;1.60;99.90
44843;DHT22;31884;52.538;13.820;2022-11-20T08:56:15;1.60;99.90
44843;DHT22;31884;52.538;13.820;2022-11-20T08:58:41;1.60;99.90
44843;DHT22;31884;52.538;13.820;2022-11-20T09:01:07;1.60;99.90
44843;DHT22;31884;52.538;13.820;2022-11-20T09:03:32;1.70;99.90
44843;DHT22;31884;52.538;13.820;2022-11-20T09:05:59;1.60;99.90
44843;DHT22;31884;52.538;13.820;2022-11-20T09:08:26;1.70;99.90
44843;DHT22;31884;52.538;13.820;2022-11-20T09:10:52;1.70;99.90
44843;DHT22;31884;52.538;13.820;2022-11-20T09:13:19;1.80;99.90
44843;DHT22;31884;52.538;13.820;2022-11-20T09:15:45;1.80;99.90
44843;DHT22;31884;52.538;13.820;2022-11-20T09:18:10;1.90;99.90
44843;DHT22;31884;52.538;13.820;2022-11-20T09:20:35;2.00;99.90
44843;DHT22;31884;52.538;13.820;2022-11-20T09:23:01;2.00;99.90
44843;DHT22;31884;52.538;13.820;2022-11-20T09:25:26;2.00;99.90
44843;DHT22;31884;52.538;13.820;2022-11-20T09:27:58;2.00;99.90
44843;DHT22;31884;52.538;13.820;2022-11-20T09:30:24;2.00;99.90
44843;DHT22;31884;52.538;13.820;2022-11-20T09:32:50;2.10;99.90
44843;DHT22;31884;52.538;13.820;2022-11-20T09:35:16;2.10;99.90
44843;DHT22;31884;52.538;13.820;2022-11-20T09:37:43;2.10;99.90
44843;DHT22;31884;52.538;13.820;2022-11-20T09:40:21;2.10;99.90
44843;DHT22;31884;52.538;13.820;2022-11-20T09:46:28;2.20;99.90
44843;DHT22;31884;52.538;13.820;2022-11-20T09:49:23;2.20;99.90
44843;DHT22;31884;52.538;13.820;2022-11-20T09:51:58;2.30;99.90
44843;DHT22;31884;52.538;13.820;2022-11-20T09:54:36;2.30;99.90
44843;DHT22;31884;52.538;13.820;2022-11-20T09:57:09;2.30;99.90
44843;DHT22;31884;52.538;13.820;2022-11-20T09:59:40;2.20;99.90
44843;DHT22;31884;52.538;13.820;2022-11-20T10:02:37;2.20;99.90
44843;DHT22;31884;52.538;13.820;2022-11-20T10:05:27;2.30;99.90
44843;DHT22;31884;52.538;13.820;2022-11-20T10:08:22;2.30;99.90
44843;DHT22;31884;52.538;13.820;2022-11-20T10:11:07;2.30;99.90
44843;DHT22;31884;52.538;13.820;2022-11-20T10:14:15;2.30;99.90
44843;DHT22;31884;52.538;13.820;2022-11-20T10:19:44;2.40;99.90
44843;DHT22;31884;52.538;13.820;2022-11-20T10:22:53;2.30;99.90
44843;DHT22;31884;52.538;13.820;2022-11-20T10:25:23;2.40;99.90
44843;DHT22;31884;52.538;13.820;2022-11-20T10:30:24;2.40;99.90
44843;DHT22;31884;52.538;13.820;2022-11-20T10:33:17;2.40;99.90
44843;DHT22;31884;52.538;13.820;2022-11-20T10:35:51;2.50;99.90
44843;DHT22;31884;52.538;13.820;2022-11-20T10:38:25;2.50;99.90
44843;DHT22;31884;52.538;13.820;2022-11-20T10:40:55;2.60;99.90
44843;DHT22;31884;52.538;13.820;2022-11-20T10:43:41;2.70;99.90
44843;DHT22;31884;52.538;13.820;2022-11-20T10:46:19;2.70;99.90
44843;DHT22;31884;52.538;13.820;2022-11-20T10:48:47;2.70;99.90
44843;DHT22;31884;52.538;13.820;2022-11-20T10:51:35;2.70;99.90
44843;DHT22;31884;52.538;13.820;2022-11-20T10:54:12;2.80;99.90
44843;DHT22;31884;52.538;13.820;2022-11-20T10:56:50;2.80;99.90
44843;DHT22;31884;52.538;13.820;2022-11-20T11:01:45;2.80;99.90
44843;DHT22;31884;52.538;13.820;2022-11-20T11:06:58;2.80;99.90
44843;DHT22;31884;52.538;13.820;2022-11-20T11:09:36;2.80;99.90
44843;DHT22;31884;52.538;13.820;2022-11-20T11:12:07;2.90;99.90
44843;DHT22;31884;52.538;13.820;2022-11-20T11:14:42;3.00;99.90
44843;DHT22;31884;52.538;13.820;2022-11-20T11:17:28;2.90;99.90
44843;DHT22;31884;52.538;13.820;2022-11-20T11:20:19;2.90;99.90
44843;DHT22;31884;52.538;13.820;2022-11-20T11:25:29;2.90;99.90
44843;DHT22;31884;52.538;13.820;2022-11-20T11:28:00;2.80;99.90
44843;DHT22;31884;52.538;13.820;2022-11-20T11:30:27;2.80;99.90
44843;DHT22;31884;52.538;13.820;2022-11-20T11:33:06;2.80;99.90
44843;DHT22;31884;52.538;13.820;2022-11-20T11:35:32;2.80;99.90
44843;DHT22;31884;52.538;13.820;2022-11-20T11:38:06;2.80;99.90
44843;DHT22;31884;52.538;13.820;2022-11-20T11:40:34;2.80;99.90
44843;DHT22;31884;52.538;13.820;2022-11-20T11:43:05;2.90;99.90
44843;DHT22;31884;52.538;13.820;2022-11-20T11:45:53;2.90;99.90
44843;DHT22;31884;52.538;13.820;2022-11-20T11:48:19;2.90;99.90
44843;DHT22;31884;52.538;13.820;2022-11-20T11:50:49;3.00;99.90
44843;DHT22;31884;52.538;13.820;2022-11-20T11:53:18;3.10;99.90
44843;DHT22;31884;52.538;13.820;2022-11-20T11:55:54;3.10;99.90
44843;DHT22;31884;52.538;13.820;2022-11-20T12:01:31;3.20;99.90
44843;DHT22;31884;52.538;13.820;2022-11-20T12:04:30;3.20;99.90
44843;DHT22;31884;52.538;13.820;2022-11-20T12:07:10;3.30;99.90
44843;DHT22;31884;52.538;13.820;2022-11-20T12:09:39;3.30;99.90
44843;DHT22;31884;52.538;13.820;2022-11-20T12:12:15;3.10;99.90
44843;DHT22;31884;52.538;13.820;2022-11-20T12:14:48;3.10;99.90
44843;DHT22;31884;52.538;13.820;2022-11-20T12:17:16;3.10;99.90
44843;DHT22;31884;52.538;13.820;2022-11-20T12:19:43;3.00;99.90
44843;DHT22;31884;52.538;13.820;2022-11-20T12:22:25;3.00;99.90
44843;DHT22;31884;52.538;13.820;2022-11-20T12:25:14;3.00;99.90
44843;DHT22;31884;52.538;13.820;2022-11-20T12:27:54;2.90;99.90
44843;DHT22;31884;52.538;13.820;2022-11-20T12:30:23;3.00;99.90
44843;DHT22;31884;52.538;13.820;2022-11-20T12:33:20;3.00;99.90
44843;DHT22;31884;52.538;13.820;2022-11-20T12:36:07;3.00;99.90
44843;DHT22;31884;52.538;13.820;2022-11-20T12:39:07;2.90;99.90
44843;DHT22;31884;52.538;13.820;2022-11-20T12:51:14;2.70;99.90
44843;DHT22;31884;52.538;13.820;2022-11-20T12:54:06;2.60;99.90
44843;DHT22;31884;52.538;13.820;2022-11-20T13:08:21;2.70;99.90
44843;DHT22;31884;52.538;13.820;2022-11-20T13:14:04;2.80;99.90
44843;DHT22;31884;52.538;13.820;2022-11-20T13:16:48;2.70;99.90
44843;DHT22;31884;52.538;13.820;2022-11-20T13:19:17;2.60;99.90
44843;DHT22;31884;52.538;13.820;2022-11-20T13:21:47;2.50;99.90
44843;DHT22;31884;52.538;13.820;2022-11-20T13:24:23;2.50;99.90
44843;DHT22;31884;52.538;13.820;2022-11-20T13:27:17;2.50;99.90
44843;DHT22;31884;52.538;13.820;2022-11-20T13:29:45;2.50;99.90
44843;DHT22;31884;52.538;13.820;2022-11-20T13:32:16;2.40;99.90
44843;DHT22;31884;52.538;13.820;2022-11-20T13:34:57;2.30;99.90
44843;DHT22;31884;52.538;13.820;2022-11-20T13:37:31;2.20;99.90
44843;DHT22;31884;52.538;13.820;2022-11-20T13:42:46;2.00;99.90
44843;DHT22;31884;52.538;13.820;2022-11-20T13:47:49;1.90;99.90
44843;DHT22;31884;52.538;13.820;2022-11-20T13:50:15;1.90;99.90
44843;DHT22;31884;52.538;13.820;2022-11-20T13:53:11;1.80;99.90
44843;DHT22;31884;52.538;13.820;2022-11-20T13:55:44;1.70;99.90
44843;DHT22;31884;52.538;13.820;2022-11-20T13:58:40;1.70;99.90
44843;DHT22;31884;52.538;13.820;2022-11-20T14:01:19;1.60;99.90
44843;DHT22;31884;52.538;13.820;2022-11-20T14:03:46;1.60;99.90
44843;DHT22;31884;52.538;13.820;2022-11-20T14:06:30;1.60;99.90
44843;DHT22;31884;52.538;13.820;2022-11-20T14:08:57;1.60;99.90
44843;DHT22;31884;52.538;13.820;2022-11-20T14:11:25;1.70;99.90
44843;DHT22;31884;52.538;13.820;2022-11-20T14:16:27;1.80;99.90
44843;DHT22;31884;52.538;13.820;2022-11-20T14:18:53;1.80;99.90
44843;DHT22;31884;52.538;13.820;2022-11-20T14:21:27;1.80;99.90
44843;DHT22;31884;52.538;13.820;2022-11-20T14:24:05;1.80;99.90
44843;DHT22;31884;52.538;13.820;2022-11-20T14:26:31;1.90;99.90
44843;DHT22;31884;52.538;13.820;2022-11-20T14:28:58;1.90;99.90
44843;DHT22;31884;52.538;13.820;2022-11-20T14:31:26;1.90;99.90
44843;DHT22;31884;52.538;13.820;2022-11-20T14:33:53;1.80;99.90
44843;DHT22;31884;52.538;13.820;2022-11-20T14:36:21;1.80;99.90
44843;DHT22;31884;52.538;13.820;2022-11-20T14:38:47;1.80;99.90
44843;DHT22;31884;52.538;13.820;2022-11-20T14:41:21;1.80;99.90
44843;DHT22;31884;52.538;13.820;2022-11-20T14:43:57;1.80;99.90
44843;DHT22;31884;52.538;13.820;2022-11-20T14:46:24;1.80;99.90
44843;DHT22;31884;52.538;13.820;2022-11-20T14:48:57;1.80;99.90
44843;DHT22;31884;52.538;13.820;2022-11-20T14:51:34;1.80;99.90
44843;DHT22;31884;52.538;13.820;2022-11-20T14:54:10;1.80;99.90
44843;DHT22;31884;52.538;13.820;2022-11-20T14:56:35;1.80;99.90
44843;DHT22;31884;52.538;13.820;2022-11-20T14:59:01;1.80;99.90
44843;DHT22;31884;52.538;13.820;2022-11-20T15:01:29;1.80;99.90
44843;DHT22;31884;52.538;13.820;2022-11-20T15:04:06;1.80;99.90
44843;DHT22;31884;52.538;13.820;2022-11-20T15:06:32;1.80;99.90
44843;DHT22;31884;52.538;13.820;2022-11-20T15:08:57;1.80;99.90
44843;DHT22;31884;52.538;13.820;2022-11-20T15:11:32;1.80;99.90
44843;DHT22;31884;52.538;13.820;2022-11-20T15:14:02;1.80;99.90
44843;DHT22;31884;52.538;13.820;2022-11-20T15:16:28;1.80;99.90
44843;DHT22;31884;52.538;13.820;2022-11-20T15:18:54;1.80;99.90
44843;DHT22;31884;52.538;13.820;2022-11-20T15:21:20;1.90;99.90
44843;DHT22;31884;52.538;13.820;2022-11-20T15:23:49;1.90;99.90
44843;DHT22;31884;52.538;13.820;2022-11-20T15:26:22;1.90;99.90
44843;DHT22;31884;52.538;13.820;2022-11-20T15:28:48;1.90;99.90
44843;DHT22;31884;52.538;13.820;2022-11-20T15:31:17;1.90;99.90
44843;DHT22;31884;52.538;13.820;2022-11-20T15:33:43;1.90;99.90
44843;DHT22;31884;52.538;13.820;2022-11-20T15:36:09;1.90;99.90
44843;DHT22;31884;52.538;13.820;2022-11-20T15:38:35;1.90;99.90
44843;DHT22;31884;52.538;13.820;2022-11-20T15:41:00;1.90;99.90
44843;DHT22;31884;52.538;13.820;2022-11-20T15:43:26;1.80;99.90
44843;DHT22;31884;52.538;13.820;2022-11-20T15:45:54;1.80;99.90
44843;DHT22;31884;52.538;13.820;2022-11-20T15:48:24;1.80;99.90
44843;DHT22;31884;52.538;13.820;2022-11-20T15:50:54;1.90;99.90
44843;DHT22;31884;52.538;13.820;2022-11-20T15:53:21;1.80;99.90
44843;DHT22;31884;52.538;13.820;2022-11-20T15:55:47;1.80;99.90
44843;DHT22;31884;52.538;13.820;2022-11-20T15:58:13;1.80;99.90
44843;DHT22;31884;52.538;13.820;2022-11-20T16:00:38;1.80;99.90
44843;DHT22;31884;52.538;13.820;2022-11-20T16:03:04;1.90;99.90
44843;DHT22;31884;52.538;13.820;2022-11-20T16:05:30;1.80;99.90
44843;DHT22;31884;52.538;13.820;2022-11-20T16:07:56;1.80;99.90
44843;DHT22;31884;52.538;13.820;2022-11-20T16:10:22;1.80;99.90
44843;DHT22;31884;52.538;13.820;2022-11-20T16:12:47;1.80;99.90
44843;DHT22;31884;52.538;13.820;2022-11-20T16:15:32;1.80;99.90
44843;DHT22;31884;52.538;13.820;2022-11-20T16:18:15;1.80;99.90
44843;DHT22;31884;52.538;13.820;2022-11-20T16:20:41;1.80;99.90
44843;DHT22;31884;52.538;13.820;2022-11-20T16:23:07;1.80;99.90
44843;DHT22;31884;52.538;13.820;2022-11-20T16:25:33;1.80;99.90
44843;DHT22;31884;52.538;13.820;2022-11-20T16:27:58;1.80;99.90
44843;DHT22;31884;52.538;13.820;2022-11-20T16:30:24;1.80;99.90
44843;DHT22;31884;52.538;13.820;2022-11-20T16:32:50;1.80;99.90
44843;DHT22;31884;52.538;13.820;2022-11-20T16:35:15;1.80;99.90
44843;DHT22;31884;52.538;13.820;2022-11-20T16:37:41;1.70;99.90
44843;DHT22;31884;52.538;13.820;2022-11-20T16:40:08;1.70;99.90